Time;durP1;ratioP1;P1;durP2;ratioP2;P2;SDS_P1;SDS_P2;PMS_P1;PMS_P2;Temp;Humidity;BMP_temperature;BMP_pressure;BME280_temperature;BME280_humidity;BME280_pressure;Samples;Min_cycle;Max_cycle;Signal;HPM_P1;HPM_P2
2022/04/05 00:02:23;;;;;;;9.48;1.27;;;6.80;99.90;;;;;;5028742;28;20026;-82
2022/04/05 00:04:49;;;;;;;8.40;1.13;;;6.80;99.90;;;;;;5017220;28;20036;-82
2022/04/05 00:07:15;;;;;;;7.22;0.70;;;6.80;99.90;;;;;;5011451;28;20022;-82
2022/04/05 00:09:41;;;;;;;7.60;1.17;;;6.80;99.90;;;;;;5030485;28;20030;-81
2022/04/05 00:12:07;;;;;;;6.07;1.25;;;6.80;99.90;;;;;;5016113;28;20474;-81
2022/04/05 00:14:32;;;;;;;5.82;0.80;;;6.80;99.90;;;;;;5008968;28;20089;-82
2022/04/05 00:16:58;;;;;;;7.53;0.95;;;6.80;99.90;;;;;;5014466;28;20054;-81
2022/04/05 00:19:25;;;;;;;4.40;0.82;;;6.90;99.90;;;;;;5019163;28;20101;-81
2022/04/05 00:21:51;;;;;;;6.22;0.65;;;6.80;99.90;;;;;;5014211;28;20053;-81
2022/04/05 00:24:16;;;;;;;5.53;0.82;;;6.70;99.90;;;;;;5014231;28;20028;-82
2022/04/05 00:26:42;;;;;;;4.97;0.75;;;6.70;99.90;;;;;;5022724;28;20030;-81
2022/04/05 00:29:08;;;;;;;4.57;1.35;;;6.70;99.90;;;;;;5032534;28;20473;-81
2022/04/05 00:31:34;;;;;;;5.97;0.80;;;6.70;99.90;;;;;;5016316;28;20084;-81
2022/04/05 00:33:59;;;;;;;7.47;1.60;;;6.70;99.90;;;;;;5023625;28;20616;-81
2022/04/05 00:36:25;;;;;;;9.32;1.02;;;6.70;99.90;;;;;;5028296;28;20049;-81
2022/04/05 00:38:51;;;;;;;5.78;0.95;;;6.60;99.90;;;;;;5032094;28;20025;-81
2022/04/05 00:41:16;;;;;;;6.47;1.15;;;6.60;99.90;;;;;;5028980;28;20018;-81
2022/04/05 00:43:42;;;;;;;5.38;1.00;;;6.70;99.90;;;;;;5030649;28;20065;-81
2022/04/05 00:46:08;;;;;;;7.30;0.95;;;6.70;99.90;;;;;;5013311;28;20049;-81
2022/04/05 00:48:55;;;;;;;5.50;0.73;;;6.70;99.90;;;;;;5025263;28;20037;-81
2022/04/05 00:51:23;;;;;;;5.07;1.60;;;6.70;99.90;;;;;;5028853;28;20022;-81
2022/04/05 00:53:51;;;;;;;7.03;1.00;;;6.70;99.90;;;;;;5025603;28;20540;-81
2022/04/05 00:56:19;;;;;;;7.20;1.00;;;6.70;99.90;;;;;;5019477;28;20434;-81
2022/04/05 00:58:52;;;;;;;9.73;1.67;;;6.70;99.90;;;;;;5014005;28;20030;-81
2022/04/05 01:01:22;;;;;;;6.20;1.02;;;6.70;99.90;;;;;;5026092;28;20105;-81
2022/04/05 01:03:51;;;;;;;11.80;1.85;;;6.70;99.90;;;;;;5027551;28;20065;-81
2022/04/05 01:06:25;;;;;;;3.92;1.38;;;6.70;99.90;;;;;;5019080;28;20022;-81
2022/04/05 01:08:51;;;;;;;5.88;1.13;;;6.70;99.90;;;;;;5021911;28;20493;-81
2022/04/05 01:11:16;;;;;;;7.40;1.40;;;6.70;99.90;;;;;;5021842;28;20033;-82
2022/04/05 01:13:43;;;;;;;7.60;1.17;;;6.80;99.90;;;;;;5023642;23;20065;-85
2022/04/05 01:16:11;;;;;;;6.65;1.30;;;6.80;99.90;;;;;;5011607;28;20552;-85
2022/04/05 01:18:37;;;;;;;7.63;1.00;;;6.80;99.90;;;;;;5024312;28;20029;-85
2022/04/05 01:21:03;;;;;;;7.70;1.25;;;6.80;99.90;;;;;;5024218;28;20521;-85
2022/04/05 01:23:29;;;;;;;7.30;1.25;;;6.80;99.90;;;;;;5027973;28;20068;-85
2022/04/05 01:25:56;;;;;;;7.90;1.08;;;6.80;99.90;;;;;;5023919;28;20034;-86
2022/04/05 01:28:22;;;;;;;7.57;0.88;;;6.80;99.90;;;;;;5005412;28;20034;-86
2022/04/05 01:30:48;;;;;;;8.52;0.98;;;6.90;99.90;;;;;;5002826;28;20029;-87
2022/04/05 01:33:14;;;;;;;3.88;1.13;;;6.80;99.90;;;;;;5001740;28;20026;-86
2022/04/05 01:35:40;;;;;;;8.77;1.40;;;6.90;99.90;;;;;;5003872;28;20027;-86
2022/04/05 01:38:10;;;;;;;10.90;1.05;;;6.90;99.90;;;;;;5014981;28;20018;-86
2022/04/05 01:40:36;;;;;;;7.32;1.15;;;6.90;99.90;;;;;;5022077;28;20118;-86
2022/04/05 01:43:02;;;;;;;7.30;0.75;;;6.90;99.90;;;;;;5023385;28;20057;-86
2022/04/05 01:45:28;;;;;;;6.82;1.02;;;6.90;99.90;;;;;;5023048;28;20030;-86
2022/04/05 01:47:54;;;;;;;7.90;1.08;;;6.90;99.90;;;;;;5023597;28;20032;-86
2022/04/05 01:50:20;;;;;;;6.35;0.95;;;6.90;99.90;;;;;;5001244;28;20030;-86
2022/04/05 01:52:46;;;;;;;7.88;1.17;;;6.90;99.90;;;;;;5002790;28;20033;-85
2022/04/05 01:55:11;;;;;;;10.90;1.15;;;6.90;99.90;;;;;;5016294;28;20470;-86
2022/04/05 01:57:37;;;;;;;9.50;1.60;;;7.00;99.90;;;;;;5026292;28;20030;-85
2022/04/05 02:00:08;;;;;;;9.77;1.33;;;7.00;99.90;;;;;;5023646;28;20033;-86
2022/04/05 02:02:34;;;;;;;8.00;0.93;;;6.90;99.90;;;;;;4994579;28;20029;-86
2022/04/05 02:05:00;;;;;;;10.13;1.00;;;7.00;99.90;;;;;;5011087;28;20058;-86
2022/04/05 02:07:26;;;;;;;7.65;1.55;;;6.90;99.90;;;;;;5007376;28;20022;-86
2022/04/05 02:09:52;;;;;;;8.20;1.35;;;6.90;99.90;;;;;;5021516;28;20034;-85
2022/04/05 02:12:18;;;;;;;6.05;1.17;;;6.90;99.90;;;;;;5017336;28;20037;-86
2022/04/05 02:14:45;;;;;;;9.73;1.20;;;7.10;99.90;;;;;;5020963;28;20050;-86
2022/04/05 02:17:11;;;;;;;9.85;1.20;;;7.00;99.90;;;;;;5001535;28;20077;-85
2022/04/05 02:19:38;;;;;;;8.65;1.40;;;7.00;99.90;;;;;;5003568;28;20030;-86
2022/04/05 02:22:04;;;;;;;12.70;1.58;;;7.00;99.90;;;;;;5013661;28;20049;-86
2022/04/05 02:24:30;;;;;;;9.82;1.35;;;7.00;99.90;;;;;;5013044;28;20037;-85
2022/04/05 02:26:56;;;;;;;9.20;1.83;;;7.00;99.90;;;;;;5017016;28;20025;-86
2022/04/05 02:29:21;;;;;;;8.70;0.80;;;6.90;99.90;;;;;;5001303;28;20027;-86
2022/04/05 02:31:49;;;;;;;5.63;0.85;;;6.90;99.90;;;;;;4998734;28;20733;-86
2022/04/05 02:34:15;;;;;;;7.13;0.95;;;6.90;99.90;;;;;;5009987;28;20026;-85
2022/04/05 02:36:41;;;;;;;7.75;0.75;;;6.90;99.90;;;;;;5001439;28;20085;-85
2022/04/05 02:39:13;;;;;;;4.07;0.60;;;6.80;99.90;;;;;;5009172;28;20034;-86
2022/04/05 02:41:39;;;;;;;9.85;0.98;;;6.80;99.90;;;;;;5009169;28;20066;-85
2022/04/05 02:44:06;;;;;;;8.13;1.17;;;6.70;99.90;;;;;;5007756;28;20027;-86
2022/04/05 02:46:31;;;;;;;6.45;0.55;;;6.70;99.90;;;;;;5001370;28;20121;-86
2022/04/05 02:48:57;;;;;;;7.97;0.90;;;6.60;99.90;;;;;;5001040;28;20062;-87
2022/04/05 02:51:23;;;;;;;4.20;0.80;;;6.70;99.90;;;;;;4999166;28;20375;-86
2022/04/05 02:53:49;;;;;;;4.22;0.85;;;6.70;99.90;;;;;;5001316;28;20022;-86
2022/04/05 02:56:15;;;;;;;4.70;1.02;;;6.70;99.90;;;;;;5005455;28;20069;-86
2022/04/05 02:58:41;;;;;;;8.40;1.00;;;6.70;99.90;;;;;;5000581;28;20028;-86
2022/04/05 03:01:07;;;;;;;4.25;0.85;;;6.70;99.90;;;;;;5000502;28;20034;-86
2022/04/05 03:03:33;;;;;;;6.07;0.80;;;6.80;99.90;;;;;;5009950;28;20076;-86
2022/04/05 03:05:59;;;;;;;4.45;1.17;;;6.80;99.90;;;;;;5019686;28;20029;-86
2022/04/05 03:08:25;;;;;;;8.95;0.82;;;6.80;99.90;;;;;;5020155;28;20025;-86
2022/04/05 03:10:51;;;;;;;7.43;1.13;;;6.80;99.90;;;;;;5017883;28;20366;-86
2022/04/05 03:13:17;;;;;;;5.10;0.60;;;6.90;99.90;;;;;;5002208;28;20255;-86
2022/04/05 03:15:42;;;;;;;7.57;0.70;;;6.90;99.90;;;;;;5010170;28;20023;-85
2022/04/05 03:18:08;;;;;;;10.98;1.08;;;6.80;99.90;;;;;;5012957;28;20061;-86
2022/04/05 03:20:34;;;;;;;7.22;0.80;;;6.90;99.90;;;;;;5004582;28;20517;-86
2022/04/05 03:23:00;;;;;;;6.65;0.90;;;6.80;99.90;;;;;;5004640;28;20106;-85
2022/04/05 03:25:27;;;;;;;7.47;1.00;;;6.80;99.90;;;;;;5017107;28;20034;-86
2022/04/05 03:27:53;;;;;;;5.40;0.80;;;6.80;99.90;;;;;;5000444;28;20026;-86
2022/04/05 03:30:21;;;;;;;6.35;0.63;;;6.80;99.90;;;;;;4999828;28;20027;-86
2022/04/05 03:32:47;;;;;;;8.20;1.00;;;6.80;99.90;;;;;;4999769;28;20543;-86
2022/04/05 03:35:13;;;;;;;9.27;1.98;;;6.80;99.90;;;;;;5001804;28;20026;-86
2022/04/05 03:37:39;;;;;;;4.05;0.77;;;6.80;99.90;;;;;;5019738;28;20042;-85
2022/04/05 03:40:05;;;;;;;7.40;0.90;;;6.80;99.90;;;;;;5016398;28;20033;-85
2022/04/05 03:42:31;;;;;;;7.63;0.95;;;6.80;99.90;;;;;;5001279;28;20117;-86
2022/04/05 03:44:57;;;;;;;3.78;0.77;;;6.80;99.90;;;;;;5012114;28;20096;-86
2022/04/05 03:47:23;;;;;;;9.35;0.90;;;6.80;99.90;;;;;;5009923;28;20113;-85
2022/04/05 03:49:49;;;;;;;6.68;0.70;;;6.70;99.90;;;;;;5006364;28;20026;-84
2022/04/05 03:52:15;;;;;;;9.13;0.95;;;6.70;99.90;;;;;;4998565;28;20018;-85
2022/04/05 03:54:41;;;;;;;3.08;0.77;;;6.70;99.90;;;;;;4999169;28;20030;-85
2022/04/05 03:57:06;;;;;;;5.82;0.95;;;6.70;99.90;;;;;;5001748;28;20041;-85
2022/04/05 03:59:38;;;;;;;3.95;1.15;;;6.70;99.90;;;;;;5008019;28;20105;-86
2022/04/05 04:02:04;;;;;;;6.63;0.85;;;6.60;99.90;;;;;;5000294;28;20481;-86
2022/04/05 04:04:30;;;;;;;6.15;1.10;;;6.70;99.90;;;;;;5012842;28;20025;-85
2022/04/05 04:06:56;;;;;;;4.53;0.77;;;6.60;99.90;;;;;;5013188;28;20053;-85
2022/04/05 04:09:22;;;;;;;4.28;0.70;;;6.60;99.90;;;;;;5008345;28;20031;-85
2022/04/05 04:11:48;;;;;;;4.10;0.70;;;6.60;99.90;;;;;;4997497;28;20054;-86
2022/04/05 04:14:14;;;;;;;2.92;0.65;;;6.60;99.90;;;;;;4996792;28;20038;-85
2022/04/05 04:16:39;;;;;;;2.92;0.43;;;6.60;99.90;;;;;;5002872;28;20026;-85
2022/04/05 04:19:05;;;;;;;2.35;0.50;;;6.50;99.90;;;;;;4996359;28;20022;-86
2022/04/05 04:21:31;;;;;;;4.20;0.90;;;6.50;99.90;;;;;;5011229;28;20022;-86
2022/04/05 04:23:56;;;;;;;4.45;0.70;;;6.50;99.90;;;;;;5006883;28;20034;-85
2022/04/05 04:26:22;;;;;;;4.88;0.80;;;6.50;99.90;;;;;;4985934;28;20457;-85
2022/04/05 04:28:51;;;;;;;7.88;0.70;;;6.50;99.90;;;;;;4979517;28;20022;-87
2022/04/05 04:31:17;;;;;;;4.20;0.75;;;6.50;99.90;;;;;;4980364;28;20019;-86
2022/04/05 04:33:43;;;;;;;2.10;1.00;;;6.50;99.90;;;;;;4985524;28;20561;-84
2022/04/05 04:36:08;;;;;;;3.85;1.08;;;6.50;99.90;;;;;;4981443;28;20018;-85
2022/04/05 04:38:34;;;;;;;3.55;0.60;;;6.50;99.90;;;;;;4995238;28;20051;-86
2022/04/05 04:40:59;;;;;;;9.18;0.98;;;6.50;99.90;;;;;;4989125;28;20490;-85
2022/04/05 04:43:27;;;;;;;4.60;1.23;;;6.50;99.90;;;;;;4991947;28;20500;-85
2022/04/05 04:45:53;;;;;;;7.22;0.98;;;6.50;99.90;;;;;;4990681;28;20033;-86
2022/04/05 04:48:19;;;;;;;4.57;1.02;;;6.50;99.90;;;;;;4981109;28;20023;-85
2022/04/05 04:50:48;;;;;;;6.00;1.08;;;6.50;99.90;;;;;;4991299;28;20022;-85
2022/04/05 04:53:14;;;;;;;6.95;1.13;;;6.50;99.90;;;;;;5003343;28;20018;-85
2022/04/05 04:55:39;;;;;;;7.20;0.90;;;6.50;99.90;;;;;;4998482;28;20026;-85
2022/04/05 04:58:06;;;;;;;6.13;0.98;;;6.50;99.90;;;;;;4996349;28;20033;-85
2022/04/05 05:00:31;;;;;;;5.68;0.90;;;6.50;99.90;;;;;;4998009;28;20420;-84
2022/04/05 05:02:57;;;;;;;5.63;1.70;;;6.50;99.90;;;;;;4991183;28;20526;-85
2022/04/05 05:05:22;;;;;;;4.72;1.20;;;6.50;99.90;;;;;;4989853;28;20393;-85
2022/04/05 05:07:50;;;;;;;2.55;0.80;;;6.50;99.90;;;;;;5000164;28;20084;-85
2022/04/05 05:10:16;;;;;;;10.20;1.27;;;6.50;99.90;;;;;;4993520;28;20018;-85
2022/04/05 05:12:42;;;;;;;6.68;0.85;;;6.50;99.90;;;;;;4993730;28;20030;-85
2022/04/05 05:15:10;;;;;;;3.47;0.80;;;6.50;99.90;;;;;;5001062;28;20391;-85
2022/04/05 05:17:37;;;;;;;7.85;0.77;;;6.50;99.90;;;;;;5006264;28;20501;-85
2022/04/05 05:20:06;;;;;;;10.25;1.23;;;6.50;99.90;;;;;;5005246;28;20569;-85
2022/04/05 05:22:32;;;;;;;3.70;1.13;;;6.60;99.90;;;;;;5007121;28;20058;-85
2022/04/05 05:24:58;;;;;;;5.45;0.90;;;6.60;99.90;;;;;;5001725;28;20688;-85
2022/04/05 05:27:23;;;;;;;3.97;0.82;;;6.60;99.90;;;;;;4996586;28;20121;-85
2022/04/05 05:29:49;;;;;;;6.60;1.20;;;6.60;99.90;;;;;;4993564;28;20070;-86
2022/04/05 05:32:14;;;;;;;5.30;2.10;;;6.60;99.90;;;;;;4997921;28;20026;-85
2022/04/05 05:34:40;;;;;;;7.43;1.00;;;6.60;99.90;;;;;;5008985;28;20060;-85
2022/04/05 05:37:05;;;;;;;3.47;0.88;;;6.60;99.90;;;;;;5001276;28;20415;-85
2022/04/05 05:39:32;;;;;;;4.03;0.73;;;6.70;99.90;;;;;;5008353;28;20034;-84
2022/04/05 05:41:58;;;;;;;5.28;0.90;;;6.70;99.90;;;;;;5003193;28;20058;-86
2022/04/05 05:44:24;;;;;;;3.80;0.60;;;6.80;99.90;;;;;;5012008;28;20448;-85
2022/04/05 05:46:50;;;;;;;4.10;1.00;;;6.80;99.90;;;;;;4999103;28;20026;-87
2022/04/05 05:49:15;;;;;;;2.95;0.70;;;6.80;99.90;;;;;;4997051;28;20473;-85
2022/04/05 05:51:41;;;;;;;6.53;0.50;;;6.90;99.90;;;;;;4998211;28;20034;-85
2022/04/05 05:54:07;;;;;;;5.05;0.70;;;6.90;99.90;;;;;;5003598;28;20025;-85
2022/04/05 05:56:33;;;;;;;5.03;1.00;;;7.00;99.90;;;;;;4980670;28;20077;-84
2022/04/05 05:58:58;;;;;;;6.07;0.93;;;7.10;99.90;;;;;;5000493;28;20311;-84
2022/04/05 06:01:24;;;;;;;3.95;1.10;;;7.20;99.90;;;;;;4993177;28;20027;-85
2022/04/05 06:03:50;;;;;;;3.35;1.00;;;7.30;99.90;;;;;;4993569;28;20027;-86
2022/04/05 06:06:16;;;;;;;5.32;0.85;;;7.40;99.90;;;;;;4999655;28;20382;-85
2022/04/05 06:08:42;;;;;;;4.93;0.88;;;7.60;99.90;;;;;;5000357;28;20045;-85
2022/04/05 06:11:07;;;;;;;2.00;0.65;;;7.80;99.90;;;;;;5005876;28;20113;-85
2022/04/05 06:13:34;;;;;;;7.20;1.08;;;8.00;99.90;;;;;;4988755;28;20093;-85
2022/04/05 06:16:00;;;;;;;5.57;0.82;;;8.10;99.90;;;;;;4995714;28;20506;-84
2022/04/05 06:18:25;;;;;;;4.82;0.93;;;8.20;99.90;;;;;;5002235;28;20221;-85
2022/04/05 06:20:51;;;;;;;4.80;0.82;;;8.30;99.90;;;;;;5001718;28;20120;-85
2022/04/05 06:23:16;;;;;;;5.05;0.70;;;8.20;99.90;;;;;;4997964;28;20508;-85
2022/04/05 06:25:42;;;;;;;6.53;0.90;;;8.20;99.90;;;;;;5011316;28;20397;-85
2022/04/05 06:28:09;;;;;;;5.70;0.90;;;8.20;99.90;;;;;;4994099;28;20069;-85
2022/04/05 06:30:37;;;;;;;5.30;0.65;;;8.20;99.90;;;;;;4999775;28;20026;-85
2022/04/05 06:33:08;;;;;;;6.40;0.88;;;8.30;99.90;;;;;;4999882;28;20501;-85
2022/04/05 06:35:35;;;;;;;4.82;0.80;;;8.20;99.90;;;;;;4999991;28;20444;-85
2022/04/05 06:38:00;;;;;;;7.10;0.90;;;8.20;99.90;;;;;;5007376;28;20079;-85
2022/04/05 06:40:26;;;;;;;4.40;0.65;;;8.20;99.90;;;;;;4996467;28;20064;-85
2022/04/05 06:42:52;;;;;;;6.07;0.63;;;8.20;99.90;;;;;;5002421;28;20053;-85
2022/04/05 06:45:19;;;;;;;5.22;1.23;;;8.20;99.90;;;;;;5000167;28;20025;-85
2022/04/05 06:47:45;;;;;;;5.95;1.10;;;8.20;99.90;;;;;;5005934;28;20052;-86
2022/04/05 06:50:12;;;;;;;6.60;1.05;;;8.10;99.90;;;;;;4992670;28;20465;-86
2022/04/05 06:52:39;;;;;;;3.28;0.90;;;8.20;99.90;;;;;;4994511;28;20513;-86
2022/04/05 06:55:07;;;;;;;6.68;1.10;;;8.30;99.90;;;;;;4994928;28;20030;-85
2022/04/05 06:57:33;;;;;;;7.13;0.80;;;8.40;99.90;;;;;;5005881;28;20406;-86
2022/04/05 06:59:58;;;;;;;4.95;0.80;;;8.30;99.90;;;;;;4996601;28;20035;-85
2022/04/05 07:02:24;;;;;;;4.05;0.93;;;8.40;99.90;;;;;;4997660;28;20113;-86
2022/04/05 07:04:49;;;;;;;4.40;0.90;;;8.40;99.90;;;;;;4990738;28;20033;-87
2022/04/05 07:07:15;;;;;;;7.22;0.90;;;8.40;96.40;;;;;;4981168;28;20494;-86
2022/04/05 07:09:40;;;;;;;4.90;1.13;;;8.50;1.00;;;;;;4975347;28;20038;-86
2022/04/05 07:12:09;;;;;;;4.32;1.27;;;8.70;1.00;;;;;;4992118;28;20110;-86
2022/04/05 07:14:35;;;;;;;3.20;1.10;;;8.60;99.90;;;;;;4981301;28;20127;-86
2022/04/05 07:17:00;;;;;;;5.03;1.00;;;8.70;99.90;;;;;;4997820;28;20553;-86
2022/04/05 07:19:26;;;;;;;3.22;0.70;;;8.80;99.90;;;;;;4971778;28;20113;-86
2022/04/05 07:21:52;;;;;;;3.42;0.95;;;8.90;99.90;;;;;;4994193;28;20030;-86
2022/04/05 07:24:18;;;;;;;3.83;0.70;;;9.00;99.90;;;;;;5005752;28;20433;-86
2022/04/05 07:26:44;;;;;;;3.38;0.60;;;9.20;99.90;;;;;;4990804;28;20034;-86
2022/04/05 07:29:10;;;;;;;5.25;0.80;;;9.20;99.90;;;;;;4997912;28;20025;-86
2022/04/05 07:31:36;;;;;;;2.35;0.70;;;9.30;99.90;;;;;;4997493;28;20148;-86
2022/04/05 07:34:03;;;;;;;3.33;0.55;;;9.30;99.90;;;;;;5001599;28;20022;-86
2022/04/05 07:36:29;;;;;;;4.10;0.70;;;9.20;99.90;;;;;;5001135;28;20026;-87
2022/04/05 07:38:55;;;;;;;0.50;0.40;;;9.10;69.70;;;;;;5004195;28;20445;-87
2022/04/05 07:41:20;;;;;;;2.58;0.50;;;9.10;11.10;;;;;;4992747;28;20023;-86
2022/04/05 07:43:46;;;;;;;3.55;1.00;;;9.20;93.50;;;;;;4978464;28;20513;-86
2022/04/05 07:46:12;;;;;;;4.82;0.73;;;9.50;99.90;;;;;;5001879;28;20042;-86
2022/04/05 07:48:39;;;;;;;1.63;0.40;;;9.70;31.00;;;;;;4975557;28;20029;-86
2022/04/05 07:51:05;;;;;;;1.63;0.60;;;9.70;5.70;;;;;;4996813;28;20021;-86
2022/04/05 07:53:31;;;;;;;1.40;0.40;;;9.40;72.30;;;;;;5006942;28;20026;-86
2022/04/05 07:55:57;;;;;;;2.92;0.80;;;9.20;94.70;;;;;;4991476;28;20027;-86
2022/04/05 07:58:24;;;;;;;0.45;0.30;;;9.20;99.90;;;;;;4977085;28;20034;-86
2022/04/05 08:00:49;;;;;;;2.97;0.60;;;9.30;99.90;;;;;;4990100;28;20029;-86
2022/04/05 08:03:15;;;;;;;1.27;0.40;;;9.50;23.80;;;;;;4991384;28;20022;-86
2022/04/05 08:05:41;;;;;;;1.52;0.55;;;9.50;85.00;;;;;;5000285;28;20033;-87
2022/04/05 08:08:08;;;;;;;2.05;0.45;;;9.70;78.80;;;;;;4990758;28;20026;-87
2022/04/05 08:10:34;;;;;;;3.10;0.50;;;9.70;1.00;;;;;;4997166;28;20037;-86
2022/04/05 08:13:00;;;;;;;0.75;0.57;;;9.80;1.00;;;;;;4994073;28;20030;-86
2022/04/05 08:15:26;;;;;;;1.30;0.57;;;9.80;1.00;;;;;;4999899;28;20414;-86
2022/04/05 08:17:52;;;;;;;1.77;0.52;;;9.90;1.00;;;;;;5004934;28;20034;-87
2022/04/05 08:20:18;;;;;;;1.42;0.50;;;9.90;1.00;;;;;;4996976;28;20083;-87
2022/04/05 08:22:45;;;;;;;1.38;0.50;;;9.80;1.00;;;;;;5001796;28;20608;-86
2022/04/05 08:25:14;;;;;;;0.43;0.40;;;9.60;1.00;;;;;;4989323;28;20038;-86
2022/04/05 08:27:40;;;;;;;3.20;0.90;;;9.70;1.00;;;;;;4982495;28;20050;-86
2022/04/05 08:30:08;;;;;;;1.08;0.50;;;9.80;1.00;;;;;;4997247;28;20030;-87
2022/04/05 08:32:36;;;;;;;1.58;0.40;;;9.90;1.00;;;;;;4998332;28;20026;-87
2022/04/05 08:35:03;;;;;;;5.00;0.60;;;10.10;1.00;;;;;;4998028;28;20489;-86
2022/04/05 08:37:28;;;;;;;2.00;0.60;;;10.20;1.00;;;;;;4977938;28;20077;-86
2022/04/05 08:39:54;;;;;;;0.50;0.45;;;10.40;1.00;;;;;;5005573;28;20044;-87
2022/04/05 08:42:20;;;;;;;1.80;0.70;;;10.30;1.00;;;;;;4998903;28;20038;-87
2022/04/05 08:44:48;;;;;;;1.27;0.50;;;10.20;1.00;;;;;;5001535;28;20038;-87
2022/04/05 08:47:14;;;;;;;0.70;0.40;;;10.50;1.00;;;;;;4991310;28;20493;-89
2022/04/05 08:49:40;;;;;;;1.33;0.45;;;10.60;1.00;;;;;;4990849;28;20106;-87
2022/04/05 08:52:06;;;;;;;3.22;0.85;;;10.70;1.00;;;;;;5001303;28;20105;-87
2022/04/05 08:54:31;;;;;;;1.30;0.70;;;10.80;1.00;;;;;;4992809;28;20026;-86
2022/04/05 08:56:57;;;;;;;13.48;2.90;;;10.90;1.00;;;;;;5012677;28;20101;-87
2022/04/05 08:59:22;;;;;;;3.60;2.30;;;10.80;1.00;;;;;;5005953;28;20050;-87
2022/04/05 09:01:50;;;;;;;2.15;1.52;;;10.90;1.00;;;;;;4994905;28;20514;-87
2022/04/05 09:04:15;;;;;;;0.95;0.50;;;10.80;1.00;;;;;;5006603;28;20081;-87
2022/04/05 09:06:41;;;;;;;1.98;0.40;;;10.90;1.00;;;;;;4993661;28;20046;-87
2022/04/05 09:09:11;;;;;;;10.35;1.05;;;11.10;1.00;;;;;;5004217;28;20022;-87
2022/04/05 09:11:46;;;;;;;1.60;0.68;;;11.40;1.00;;;;;;5011602;28;20068;-88
2022/04/05 09:14:12;;;;;;;3.03;1.00;;;11.40;1.00;;;;;;5004613;28;20528;-87
2022/04/05 09:16:38;;;;;;;0.60;0.50;;;11.60;1.00;;;;;;5000965;28;20033;-87
2022/04/05 09:19:14;;;;;;;0.85;0.60;;;11.50;1.00;;;;;;4997637;28;20022;-87
2022/04/05 09:21:56;;;;;;;1.88;0.90;;;12.10;1.00;;;;;;5005513;28;20470;-87
2022/04/05 09:24:31;;;;;;;1.48;0.50;;;12.90;99.90;;;;;;4988545;28;20110;-86
2022/04/05 09:26:57;;;;;;;9.35;1.20;;;12.60;99.90;;;;;;4993552;28;20061;-87
2022/04/05 09:29:36;;;;;;;3.55;1.25;;;13.00;99.90;;;;;;5000630;28;20112;-87
2022/04/05 09:32:01;;;;;;;4.22;1.17;;;13.20;99.90;;;;;;4995302;28;20030;-87
2022/04/05 09:34:27;;;;;;;2.03;1.00;;;13.30;99.90;;;;;;4995155;28;20026;-87
2022/04/05 09:36:53;;;;;;;1.48;0.80;;;13.50;99.90;;;;;;4994871;28;20417;-87
2022/04/05 09:39:25;;;;;;;6.30;1.25;;;13.70;99.90;;;;;;5000389;28;20033;-87
2022/04/05 09:42:01;;;;;;;42.33;3.55;;;13.60;99.90;;;;;;4993036;28;20089;-87
2022/04/05 09:44:32;;;;;;;3.35;0.93;;;14.10;99.90;;;;;;4992582;28;20041;-87
2022/04/05 09:47:14;;;;;;;2.13;0.93;;;14.30;99.90;;;;;;5008032;28;20034;-86
2022/04/05 09:49:44;;;;;;;2.90;0.95;;;14.80;99.90;;;;;;4986597;28;20040;-87
2022/04/05 09:52:29;;;;;;;;;;;15.00;99.90;;;;;;4993436;28;20041;-87
2022/04/05 09:54:55;;;;;;;3.45;1.40;;;14.70;99.90;;;;;;5014296;28;20644;-87
2022/04/05 09:57:33;;;;;;;2.78;1.55;;;15.50;99.90;;;;;;5015677;28;20076;-87
2022/04/05 10:00:10;;;;;;;2.13;0.90;;;15.80;99.90;;;;;;5014504;28;20026;-87
2022/04/05 10:02:36;;;;;;;1.92;1.08;;;15.80;99.90;;;;;;5015808;28;20033;-87
2022/04/05 10:05:09;;;;;;;1.95;1.30;;;16.80;99.90;;;;;;5007254;28;20389;-87
2022/04/05 10:07:36;;;;;;;3.83;1.60;;;17.20;99.90;;;;;;5008168;28;20037;-86
2022/04/05 10:10:07;;;;;;;2.85;1.63;;;17.30;99.90;;;;;;4998352;28;20104;-86
2022/04/05 10:12:33;;;;;;;3.35;1.80;;;18.60;99.90;;;;;;5010962;28;20048;-86
2022/04/05 10:15:02;;;;;;;3.00;1.48;;;19.70;99.90;;;;;;5000299;28;20514;-86
2022/04/05 10:17:29;;;;;;;8.25;1.45;;;19.30;99.90;;;;;;4988248;28;20110;-86
2022/04/05 10:19:57;;;;;;;3.00;1.52;;;17.70;99.90;;;;;;4982132;28;21430;-86
2022/04/05 10:22:23;;;;;;;1.45;1.30;;;16.60;99.90;;;;;;4982825;28;20081;-85
2022/04/05 10:24:52;;;;;;;3.40;1.98;;;16.70;99.90;;;;;;4984687;28;20037;-85
2022/04/05 10:27:18;;;;;;;4.63;2.10;;;17.30;99.90;;;;;;4995342;28;20030;-86
2022/04/05 10:29:45;;;;;;;2.83;1.90;;;16.50;99.90;;;;;;4990630;28;20027;-86
2022/04/05 10:32:32;;;;;;;2.28;1.65;;;16.80;99.90;;;;;;4988510;28;20031;-86
2022/04/05 10:35:08;;;;;;;2.55;2.17;;;17.40;99.90;;;;;;5009283;28;20068;-86
2022/04/05 10:37:36;;;;;;;3.55;1.80;;;18.60;99.90;;;;;;5015738;28;20033;-85
2022/04/05 10:40:02;;;;;;;3.88;2.28;;;18.70;99.90;;;;;;4992456;28;20051;-86
2022/04/05 10:42:53;;;;;;;3.80;2.55;;;20.60;99.90;;;;;;4992069;28;20022;-85
2022/04/05 10:45:21;;;;;;;3.38;2.50;;;19.70;99.90;;;;;;4996730;28;20034;-85
2022/04/05 10:48:27;;;;;;;10.82;3.00;;;20.50;99.90;;;;;;4981898;28;20105;-86
2022/04/05 10:51:02;;;;;;;4.30;2.95;;;18.60;99.90;;;;;;4958008;28;20034;-86
2022/04/05 10:53:33;;;;;;;4.93;3.00;;;18.70;99.90;;;;;;4994809;28;20120;-85
2022/04/05 10:56:06;;;;;;;6.72;3.78;;;18.70;99.90;;;;;;5000965;28;20434;-85
2022/04/05 10:59:01;;;;;;;5.03;3.40;;;18.40;99.90;;;;;;4994331;28;20497;-85
2022/04/05 11:01:43;;;;;;;6.05;3.70;;;17.80;99.90;;;;;;5014171;28;20433;-85
2022/04/05 11:04:14;;;;;;;7.50;4.18;;;17.90;99.90;;;;;;4995678;28;20046;-85
2022/04/05 11:06:58;;;;;;;5.63;3.70;;;17.20;99.90;;;;;;4995775;28;20026;-85
2022/04/05 11:09:30;;;;;;;7.25;3.42;;;16.90;99.90;;;;;;4996813;28;20030;-85
2022/04/05 11:11:56;;;;;;;9.55;4.30;;;17.30;99.90;;;;;;4997438;28;20019;-85
2022/04/05 11:14:35;;;;;;;6.03;3.83;;;17.70;99.90;;;;;;4997829;28;20124;-86
2022/04/05 11:17:06;;;;;;;7.32;4.50;;;18.20;99.90;;;;;;5001742;28;20030;-86
2022/04/05 11:19:42;;;;;;;7.90;4.43;;;17.70;99.90;;;;;;4997122;28;20129;-86
2022/04/05 11:22:19;;;;;;;7.55;4.68;;;17.80;99.90;;;;;;4978119;28;20037;-86
2022/04/05 11:24:59;;;;;;;7.10;4.35;;;17.10;99.90;;;;;;4975692;28;20113;-86
2022/04/05 11:27:30;;;;;;;10.93;4.22;;;16.50;99.90;;;;;;4976414;28;20023;-86
2022/04/05 11:30:37;;;;;;;8.68;4.18;;;16.20;99.90;;;;;;4976481;28;20691;-86
2022/04/05 11:33:22;;;;;;;8.20;4.13;;;15.70;99.90;;;;;;4976995;28;20062;-86
2022/04/05 11:36:00;;;;;;;6.85;4.03;;;15.90;99.90;;;;;;4975757;28;20030;-86
2022/04/05 11:38:29;;;;;;;8.05;4.20;;;15.80;99.90;;;;;;4977002;28;20054;-86
2022/04/05 11:41:05;;;;;;;10.10;4.00;;;15.90;99.90;;;;;;4977063;28;20435;-85
2022/04/05 11:43:40;;;;;;;7.57;4.15;;;15.40;99.90;;;;;;4976831;28;20026;-86
2022/04/05 11:46:27;;;;;;;9.00;4.15;;;14.90;99.90;;;;;;4989042;28;20032;-86
2022/04/05 11:48:55;;;;;;;9.25;3.90;;;14.70;99.90;;;;;;5013732;28;20064;-86
2022/04/05 11:51:23;;;;;;;7.05;3.20;;;14.60;99.90;;;;;;4997992;28;20032;-86
2022/04/05 11:53:49;;;;;;;9.70;4.57;;;14.10;99.90;;;;;;4996163;28;20054;-86
2022/04/05 11:56:18;;;;;;;12.27;4.25;;;13.90;99.90;;;;;;5011273;28;20030;-86
2022/04/05 11:58:49;;;;;;;10.90;3.63;;;13.70;99.90;;;;;;4995900;28;20023;-86
2022/04/05 12:01:20;;;;;;;12.18;4.35;;;13.70;99.90;;;;;;4996367;28;20034;-87
2022/04/05 12:03:52;;;;;;;9.32;3.75;;;13.70;99.90;;;;;;4977372;28;20030;-86
2022/04/05 12:06:21;;;;;;;9.63;3.22;;;13.80;99.90;;;;;;4967619;28;20118;-86
2022/04/05 12:08:48;;;;;;;10.95;3.58;;;13.70;99.90;;;;;;4999503;28;20080;-86
2022/04/05 12:11:19;;;;;;;13.27;4.57;;;13.70;99.90;;;;;;5003303;28;20037;-86
2022/04/05 12:13:52;;;;;;;;;;;13.60;99.90;;;;;;4996577;28;20076;-86
2022/04/05 12:16:18;;;;;;;8.25;3.70;;;13.40;99.90;;;;;;5011634;28;20427;-85
2022/04/05 12:18:43;;;;;;;12.30;4.18;;;13.20;99.90;;;;;;5015593;28;20026;-86
2022/04/05 12:21:09;;;;;;;18.75;4.65;;;13.20;99.90;;;;;;5017094;28;20029;-86
2022/04/05 12:23:38;;;;;;;12.43;3.97;;;13.00;99.90;;;;;;5015603;28;20022;-86
2022/04/05 12:26:09;;;;;;;18.50;4.45;;;12.90;99.90;;;;;;5020475;28;20033;-86
2022/04/05 12:28:37;;;;;;;14.60;4.35;;;12.60;99.90;;;;;;5027332;28;20086;-86
2022/04/05 12:31:08;;;;;;;12.80;4.28;;;12.40;1.00;;;;;;5028368;28;20173;-86
2022/04/05 12:33:34;;;;;;;14.88;4.18;;;12.40;1.00;;;;;;5026432;28;20030;-86
2022/04/05 12:36:01;;;;;;;14.13;4.15;;;12.50;1.00;;;;;;5019545;28;20040;-86
2022/04/05 12:38:27;;;;;;;15.70;4.90;;;12.50;1.00;;;;;;5013123;28;20042;-86
2022/04/05 12:40:52;;;;;;;17.85;4.78;;;12.70;99.90;;;;;;5008982;28;20390;-86
2022/04/05 12:43:20;;;;;;;13.43;4.50;;;12.80;99.90;;;;;;5017114;28;20529;-86
2022/04/05 12:45:46;;;;;;;22.35;4.93;;;12.60;99.90;;;;;;5009161;28;20034;-86
2022/04/05 12:48:16;;;;;;;16.25;5.10;;;12.60;1.00;;;;;;4992658;28;20497;-86
2022/04/05 12:50:49;;;;;;;14.63;5.07;;;12.50;1.00;;;;;;4994299;28;20057;-86
2022/04/05 12:53:33;;;;;;;14.60;4.22;;;12.20;1.00;;;;;;4991353;28;20038;-86
2022/04/05 12:56:09;;;;;;;17.13;4.78;;;12.20;1.00;;;;;;4989116;28;20097;-86
2022/04/05 12:58:39;;;;;;;12.38;4.68;;;12.10;1.00;;;;;;4996336;28;20061;-86
2022/04/05 13:01:15;;;;;;;12.77;4.22;;;12.10;1.00;;;;;;4990207;28;20062;-86